sensor_id;sensor_type;location;lat;lon;timestamp;pressure;altitude;pressure_sealevel;temperature;humidity
18813;BME280;9534;51.140;6.296;2023-02-18T00:01:45;101383.47;;;11.16;100.00
18813;BME280;9534;51.140;6.296;2023-02-18T00:05:49;101387.25;;;11.15;100.00
18813;BME280;9534;51.140;6.296;2023-02-18T00:09:53;101382.00;;;11.13;100.00
18813;BME280;9534;51.140;6.296;2023-02-18T00:13:57;101389.78;;;11.16;100.00
18813;BME280;9534;51.140;6.296;2023-02-18T00:18:01;101382.00;;;11.13;100.00
18813;BME280;9534;51.140;6.296;2023-02-18T00:22:04;101365.56;;;11.13;100.00
18813;BME280;9534;51.140;6.296;2023-02-18T00:26:10;101373.78;;;11.13;100.00
18813;BME280;9534;51.140;6.296;2023-02-18T00:30:14;101366.59;;;11.12;100.00
18813;BME280;9534;51.140;6.296;2023-02-18T00:34:18;101356.03;;;11.09;100.00
18813;BME280;9534;51.140;6.296;2023-02-18T00:38:21;101354.34;;;11.08;100.00
18813;BME280;9534;51.140;6.296;2023-02-18T00:42:25;101343.56;;;11.07;100.00
18813;BME280;9534;51.140;6.296;2023-02-18T00:46:28;101340.66;;;11.08;100.00
18813;BME280;9534;51.140;6.296;2023-02-18T00:50:34;101338.28;;;11.06;100.00
18813;BME280;9534;51.140;6.296;2023-02-18T00:54:37;101331.56;;;11.08;100.00
18813;BME280;9534;51.140;6.296;2023-02-18T00:58:42;101330.72;;;11.08;100.00
18813;BME280;9534;51.140;6.296;2023-02-18T01:02:45;101334.13;;;11.09;100.00
18813;BME280;9534;51.140;6.296;2023-02-18T01:06:48;101333.47;;;11.08;100.00
18813;BME280;9534;51.140;6.296;2023-02-18T01:10:52;101310.91;;;11.06;100.00
18813;BME280;9534;51.140;6.296;2023-02-18T01:14:57;101329.81;;;11.01;100.00
18813;BME280;9534;51.140;6.296;2023-02-18T01:19:00;101316.53;;;10.98;100.00
18813;BME280;9534;51.140;6.296;2023-02-18T01:23:04;101326.16;;;10.94;100.00
18813;BME280;9534;51.140;6.296;2023-02-18T01:27:07;101325.25;;;10.87;100.00
18813;BME280;9534;51.140;6.296;2023-02-18T01:31:12;101324.50;;;10.78;100.00
18813;BME280;9534;51.140;6.296;2023-02-18T01:35:18;101324.47;;;10.72;100.00
18813;BME280;9534;51.140;6.296;2023-02-18T01:39:21;101325.25;;;10.66;100.00
18813;BME280;9534;51.140;6.296;2023-02-18T01:43:24;101331.97;;;10.63;100.00
18813;BME280;9534;51.140;6.296;2023-02-18T01:47:28;101320.75;;;10.58;100.00
18813;BME280;9534;51.140;6.296;2023-02-18T01:51:34;101316.50;;;10.56;100.00
18813;BME280;9534;51.140;6.296;2023-02-18T01:55:39;101317.53;;;10.55;100.00
18813;BME280;9534;51.140;6.296;2023-02-18T01:59:45;101301.72;;;10.50;100.00
18813;BME280;9534;51.140;6.296;2023-02-18T02:03:51;101310.75;;;10.51;100.00
18813;BME280;9534;51.140;6.296;2023-02-18T02:07:54;101304.63;;;10.49;100.00
18813;BME280;9534;51.140;6.296;2023-02-18T02:16:29;101287.81;;;10.52;100.00
18813;BME280;9534;51.140;6.296;2023-02-18T02:25:31;101263.19;;;10.52;100.00
18813;BME280;9534;51.140;6.296;2023-02-18T02:34:36;101241.38;;;10.58;100.00
18813;BME280;9534;51.140;6.296;2023-02-18T02:38:52;101219.66;;;10.57;100.00
18813;BME280;9534;51.140;6.296;2023-02-18T02:43:03;101227.88;;;10.57;100.00
18813;BME280;9534;51.140;6.296;2023-02-18T02:47:10;101221.63;;;10.63;100.00
18813;BME280;9534;51.140;6.296;2023-02-18T02:51:21;101217.84;;;10.64;100.00
18813;BME280;9534;51.140;6.296;2023-02-18T02:55:25;101205.66;;;10.66;100.00
18813;BME280;9534;51.140;6.296;2023-02-18T02:59:31;101204.41;;;10.69;100.00
18813;BME280;9534;51.140;6.296;2023-02-18T03:03:57;101204.66;;;10.74;100.00
18813;BME280;9534;51.140;6.296;2023-02-18T03:08:23;101195.41;;;10.75;100.00
18813;BME280;9534;51.140;6.296;2023-02-18T03:12:36;101207.84;;;10.77;100.00
18813;BME280;9534;51.140;6.296;2023-02-18T03:16:47;101190.38;;;10.78;100.00
18813;BME280;9534;51.140;6.296;2023-02-18T03:20:55;101184.88;;;10.78;100.00
18813;BME280;9534;51.140;6.296;2023-02-18T03:25:02;101184.44;;;10.75;100.00
18813;BME280;9534;51.140;6.296;2023-02-18T03:29:07;101174.34;;;10.75;100.00
18813;BME280;9534;51.140;6.296;2023-02-18T03:33:16;101162.16;;;10.78;100.00
18813;BME280;9534;51.140;6.296;2023-02-18T03:37:19;101157.31;;;10.80;100.00
18813;BME280;9534;51.140;6.296;2023-02-18T03:41:25;101144.69;;;10.79;100.00
18813;BME280;9534;51.140;6.296;2023-02-18T03:45:29;101143.63;;;10.80;100.00
18813;BME280;9534;51.140;6.296;2023-02-18T03:49:32;101142.19;;;10.84;100.00
18813;BME280;9534;51.140;6.296;2023-02-18T03:53:35;101144.28;;;10.82;100.00
18813;BME280;9534;51.140;6.296;2023-02-18T03:57:39;101143.00;;;10.78;100.00
18813;BME280;9534;51.140;6.296;2023-02-18T04:01:42;101111.72;;;10.66;100.00
18813;BME280;9534;51.140;6.296;2023-02-18T04:05:46;101117.56;;;10.56;100.00
18813;BME280;9534;51.140;6.296;2023-02-18T04:09:49;101130.13;;;10.51;100.00
18813;BME280;9534;51.140;6.296;2023-02-18T04:13:53;101113.47;;;10.46;100.00
18813;BME280;9534;51.140;6.296;2023-02-18T04:17:56;101116.59;;;10.43;100.00
18813;BME280;9534;51.140;6.296;2023-02-18T04:21:59;101118.69;;;10.41;100.00
18813;BME280;9534;51.140;6.296;2023-02-18T04:26:02;101117.59;;;10.35;100.00
18813;BME280;9534;51.140;6.296;2023-02-18T04:30:08;101111.72;;;10.38;100.00
18813;BME280;9534;51.140;6.296;2023-02-18T04:34:11;101098.03;;;10.38;100.00
18813;BME280;9534;51.140;6.296;2023-02-18T04:38:14;101110.22;;;10.36;100.00
18813;BME280;9534;51.140;6.296;2023-02-18T04:42:17;101122.19;;;10.35;100.00
18813;BME280;9534;51.140;6.296;2023-02-18T04:46:21;101118.63;;;10.34;100.00
18813;BME280;9534;51.140;6.296;2023-02-18T04:50:24;101099.88;;;10.31;100.00
18813;BME280;9534;51.140;6.296;2023-02-18T04:54:27;101106.00;;;10.33;100.00
18813;BME280;9534;51.140;6.296;2023-02-18T04:58:30;101108.91;;;10.32;100.00
18813;BME280;9534;51.140;6.296;2023-02-18T05:02:35;101106.38;;;10.30;100.00
18813;BME280;9534;51.140;6.296;2023-02-18T05:06:38;101105.56;;;10.30;100.00
18813;BME280;9534;51.140;6.296;2023-02-18T05:10:43;101100.47;;;10.27;100.00
18813;BME280;9534;51.140;6.296;2023-02-18T05:14:46;101105.97;;;10.27;100.00
18813;BME280;9534;51.140;6.296;2023-02-18T05:18:51;101106.13;;;10.25;100.00
18813;BME280;9534;51.140;6.296;2023-02-18T05:22:54;101093.31;;;10.26;100.00
18813;BME280;9534;51.140;6.296;2023-02-18T05:26:57;101092.06;;;10.28;100.00
18813;BME280;9534;51.140;6.296;2023-02-18T05:31:00;101079.66;;;10.26;100.00
18813;BME280;9534;51.140;6.296;2023-02-18T05:35:06;101071.44;;;10.26;100.00
18813;BME280;9534;51.140;6.296;2023-02-18T05:39:09;101054.56;;;10.22;100.00
18813;BME280;9534;51.140;6.296;2023-02-18T05:43:12;101054.38;;;10.24;100.00
18813;BME280;9534;51.140;6.296;2023-02-18T05:47:15;101044.09;;;10.26;100.00
18813;BME280;9534;51.140;6.296;2023-02-18T05:51:20;101037.34;;;10.28;100.00
18813;BME280;9534;51.140;6.296;2023-02-18T05:55:23;101039.09;;;10.36;100.00
18813;BME280;9534;51.140;6.296;2023-02-18T05:59:26;101019.28;;;10.34;100.00
18813;BME280;9534;51.140;6.296;2023-02-18T06:03:29;101007.13;;;10.36;100.00
18813;BME280;9534;51.140;6.296;2023-02-18T06:07:33;100990.31;;;10.39;100.00
18813;BME280;9534;51.140;6.296;2023-02-18T06:11:36;100994.34;;;10.50;100.00
18813;BME280;9534;51.140;6.296;2023-02-18T06:15:40;100996.44;;;10.48;100.00
18813;BME280;9534;51.140;6.296;2023-02-18T06:19:43;100986.00;;;10.58;100.00
18813;BME280;9534;51.140;6.296;2023-02-18T06:23:47;100994.44;;;10.63;100.00
18813;BME280;9534;51.140;6.296;2023-02-18T06:27:50;100985.59;;;10.61;100.00
18813;BME280;9534;51.140;6.296;2023-02-18T06:31:53;101006.50;;;10.68;100.00
18813;BME280;9534;51.140;6.296;2023-02-18T06:35:58;100981.63;;;10.70;100.00
18813;BME280;9534;51.140;6.296;2023-02-18T06:40:03;100989.66;;;10.71;100.00
18813;BME280;9534;51.140;6.296;2023-02-18T06:44:07;100979.13;;;10.75;100.00
18813;BME280;9534;51.140;6.296;2023-02-18T06:48:10;100966.09;;;10.77;100.00
18813;BME280;9534;51.140;6.296;2023-02-18T06:52:14;100959.75;;;10.70;100.00
18813;BME280;9534;51.140;6.296;2023-02-18T06:56:18;100961.44;;;10.71;100.00
18813;BME280;9534;51.140;6.296;2023-02-18T07:00:21;100971.50;;;10.64;100.00
18813;BME280;9534;51.140;6.296;2023-02-18T07:04:24;100999.19;;;10.48;100.00
18813;BME280;9534;51.140;6.296;2023-02-18T07:08:27;101003.13;;;10.39;100.00
18813;BME280;9534;51.140;6.296;2023-02-18T07:12:33;101018.03;;;10.30;100.00
18813;BME280;9534;51.140;6.296;2023-02-18T07:16:36;101000.59;;;10.37;100.00
18813;BME280;9534;51.140;6.296;2023-02-18T07:20:39;100996.75;;;10.32;100.00
18813;BME280;9534;51.140;6.296;2023-02-18T07:24:42;101017.97;;;10.23;100.00
18813;BME280;9534;51.140;6.296;2023-02-18T07:28:46;100992.06;;;10.19;100.00
18813;BME280;9534;51.140;6.296;2023-02-18T07:32:50;100983.06;;;10.25;100.00
18813;BME280;9534;51.140;6.296;2023-02-18T07:36:53;101027.72;;;10.32;100.00
18813;BME280;9534;51.140;6.296;2023-02-18T07:40:56;100995.06;;;10.31;100.00
18813;BME280;9534;51.140;6.296;2023-02-18T07:45:01;101031.88;;;10.28;100.00
18813;BME280;9534;51.140;6.296;2023-02-18T07:49:04;101014.06;;;10.11;100.00
18813;BME280;9534;51.140;6.296;2023-02-18T07:53:09;101037.50;;;9.99;100.00
18813;BME280;9534;51.140;6.296;2023-02-18T07:57:12;101042.91;;;9.93;100.00
18813;BME280;9534;51.140;6.296;2023-02-18T08:01:16;101035.28;;;9.88;100.00
18813;BME280;9534;51.140;6.296;2023-02-18T08:05:20;101017.13;;;9.81;100.00
18813;BME280;9534;51.140;6.296;2023-02-18T08:09:23;101042.78;;;9.80;100.00
18813;BME280;9534;51.140;6.296;2023-02-18T08:13:26;101031.59;;;9.75;100.00
18813;BME280;9534;51.140;6.296;2023-02-18T08:17:31;101067.50;;;9.72;100.00
18813;BME280;9534;51.140;6.296;2023-02-18T08:21:34;101051.19;;;9.79;100.00
18813;BME280;9534;51.140;6.296;2023-02-18T08:25:38;101041.56;;;9.83;100.00
18813;BME280;9534;51.140;6.296;2023-02-18T08:29:41;101041.00;;;9.93;100.00
18813;BME280;9534;51.140;6.296;2023-02-18T08:33:46;101028.06;;;10.02;100.00
18813;BME280;9534;51.140;6.296;2023-02-18T08:37:49;101018.44;;;10.06;100.00
18813;BME280;9534;51.140;6.296;2023-02-18T08:41:56;101011.59;;;10.16;100.00
18813;BME280;9534;51.140;6.296;2023-02-18T08:45:59;101010.88;;;10.29;100.00
18813;BME280;9534;51.140;6.296;2023-02-18T08:50:04;101010.03;;;10.35;100.00
18813;BME280;9534;51.140;6.296;2023-02-18T08:54:08;101006.72;;;10.39;100.00
18813;BME280;9534;51.140;6.296;2023-02-18T08:58:11;101003.34;;;10.37;100.00
18813;BME280;9534;51.140;6.296;2023-02-18T09:02:14;100994.50;;;10.42;100.00
18813;BME280;9534;51.140;6.296;2023-02-18T09:06:19;100978.75;;;10.44;100.00
18813;BME280;9534;51.140;6.296;2023-02-18T09:10:23;100983.25;;;10.58;100.00
18813;BME280;9534;51.140;6.296;2023-02-18T09:14:27;100968.56;;;10.65;100.00
18813;BME280;9534;51.140;6.296;2023-02-18T09:18:31;100978.72;;;10.71;100.00
18813;BME280;9534;51.140;6.296;2023-02-18T09:22:37;100974.94;;;10.79;100.00
18813;BME280;9534;51.140;6.296;2023-02-18T09:26:41;100971.41;;;10.85;100.00
18813;BME280;9534;51.140;6.296;2023-02-18T09:30:44;100981.91;;;10.81;100.00
18813;BME280;9534;51.140;6.296;2023-02-18T09:34:48;100975.03;;;10.98;100.00
18813;BME280;9534;51.140;6.296;2023-02-18T09:38:53;100956.56;;;11.19;100.00
18813;BME280;9534;51.140;6.296;2023-02-18T09:42:56;100948.56;;;11.18;100.00
18813;BME280;9534;51.140;6.296;2023-02-18T09:47:02;100952.75;;;11.08;100.00
18813;BME280;9534;51.140;6.296;2023-02-18T09:51:10;100957.13;;;10.96;100.00
18813;BME280;9534;51.140;6.296;2023-02-18T09:55:20;100964.47;;;10.95;100.00
18813;BME280;9534;51.140;6.296;2023-02-18T09:59:24;101001.13;;;10.88;100.00
18813;BME280;9534;51.140;6.296;2023-02-18T10:03:28;100978.16;;;10.89;100.00
18813;BME280;9534;51.140;6.296;2023-02-18T10:07:32;100982.13;;;10.86;100.00
18813;BME280;9534;51.140;6.296;2023-02-18T10:11:41;101001.44;;;10.72;100.00
18813;BME280;9534;51.140;6.296;2023-02-18T10:15:46;100954.94;;;10.78;100.00
18813;BME280;9534;51.140;6.296;2023-02-18T10:19:51;100970.31;;;10.79;100.00
18813;BME280;9534;51.140;6.296;2023-02-18T10:23:58;100993.06;;;10.80;100.00
18813;BME280;9534;51.140;6.296;2023-02-18T10:28:04;100987.72;;;10.65;100.00
18813;BME280;9534;51.140;6.296;2023-02-18T10:32:16;101003.44;;;10.23;100.00
18813;BME280;9534;51.140;6.296;2023-02-18T10:36:24;101054.75;;;10.00;100.00
18813;BME280;9534;51.140;6.296;2023-02-18T10:40:34;101068.28;;;9.87;100.00
18813;BME280;9534;51.140;6.296;2023-02-18T10:44:53;101078.53;;;9.79;100.00
18813;BME280;9534;51.140;6.296;2023-02-18T10:49:19;101078.06;;;9.75;100.00
18813;BME280;9534;51.140;6.296;2023-02-18T10:53:33;101083.19;;;9.64;100.00
18813;BME280;9534;51.140;6.296;2023-02-18T10:57:46;101084.63;;;9.60;100.00
18813;BME280;9534;51.140;6.296;2023-02-18T11:01:55;101109.75;;;9.55;100.00
18813;BME280;9534;51.140;6.296;2023-02-18T11:06:00;101094.03;;;9.57;100.00
18813;BME280;9534;51.140;6.296;2023-02-18T11:10:12;101084.34;;;9.55;100.00
18813;BME280;9534;51.140;6.296;2023-02-18T11:14:36;101104.69;;;9.52;100.00
18813;BME280;9534;51.140;6.296;2023-02-18T11:18:41;101096.22;;;9.47;100.00
18813;BME280;9534;51.140;6.296;2023-02-18T11:22:46;101098.38;;;9.52;100.00
18813;BME280;9534;51.140;6.296;2023-02-18T11:26:50;101095.94;;;9.57;100.00
18813;BME280;9534;51.140;6.296;2023-02-18T11:30:55;101086.22;;;9.54;100.00
18813;BME280;9534;51.140;6.296;2023-02-18T11:35:03;101108.94;;;9.55;100.00
18813;BME280;9534;51.140;6.296;2023-02-18T11:39:17;101054.47;;;9.53;100.00
18813;BME280;9534;51.140;6.296;2023-02-18T11:43:25;101120.31;;;9.58;100.00
18813;BME280;9534;51.140;6.296;2023-02-18T11:47:33;101103.34;;;9.63;100.00
18813;BME280;9534;51.140;6.296;2023-02-18T11:51:39;101086.38;;;9.67;100.00
18813;BME280;9534;51.140;6.296;2023-02-18T11:55:52;101111.22;;;9.72;100.00
18813;BME280;9534;51.140;6.296;2023-02-18T11:59:56;101095.03;;;9.71;100.00
18813;BME280;9534;51.140;6.296;2023-02-18T12:04:07;101096.25;;;9.68;100.00
18813;BME280;9534;51.140;6.296;2023-02-18T12:08:17;101089.09;;;9.67;100.00
18813;BME280;9534;51.140;6.296;2023-02-18T12:12:25;101109.91;;;9.68;100.00
18813;BME280;9534;51.140;6.296;2023-02-18T12:16:35;101099.84;;;9.69;100.00
18813;BME280;9534;51.140;6.296;2023-02-18T12:25:25;101096.91;;;9.70;100.00
18813;BME280;9534;51.140;6.296;2023-02-18T12:29:46;101089.38;;;9.72;100.00
18813;BME280;9534;51.140;6.296;2023-02-18T12:34:04;101087.28;;;9.74;100.00
18813;BME280;9534;51.140;6.296;2023-02-18T12:38:28;101082.88;;;9.73;100.00
18813;BME280;9534;51.140;6.296;2023-02-18T12:42:45;101078.69;;;9.77;100.00
18813;BME280;9534;51.140;6.296;2023-02-18T12:51:31;101102.91;;;9.80;100.00
18813;BME280;9534;51.140;6.296;2023-02-18T12:55:46;101086.72;;;9.79;100.00
18813;BME280;9534;51.140;6.296;2023-02-18T13:00:39;101090.94;;;9.81;100.00
18813;BME280;9534;51.140;6.296;2023-02-18T13:04:52;101085.69;;;9.80;100.00
18813;BME280;9534;51.140;6.296;2023-02-18T13:09:05;101096.22;;;9.83;100.00
18813;BME280;9534;51.140;6.296;2023-02-18T13:13:12;101077.31;;;9.87;100.00
18813;BME280;9534;51.140;6.296;2023-02-18T13:17:20;101092.50;;;9.90;100.00
18813;BME280;9534;51.140;6.296;2023-02-18T13:21:24;101089.38;;;9.93;100.00
18813;BME280;9534;51.140;6.296;2023-02-18T13:25:30;101098.25;;;9.95;100.00
18813;BME280;9534;51.140;6.296;2023-02-18T13:29:38;101094.25;;;9.97;100.00
18813;BME280;9534;51.140;6.296;2023-02-18T13:33:50;101091.34;;;9.99;100.00
18813;BME280;9534;51.140;6.296;2023-02-18T13:38:07;101088.00;;;10.03;100.00
18813;BME280;9534;51.140;6.296;2023-02-18T13:42:25;101090.75;;;10.03;100.00
18813;BME280;9534;51.140;6.296;2023-02-18T13:46:29;101085.75;;;10.07;100.00
18813;BME280;9534;51.140;6.296;2023-02-18T13:50:41;101088.13;;;10.10;100.00
18813;BME280;9534;51.140;6.296;2023-02-18T13:54:45;101086.03;;;10.12;100.00
18813;BME280;9534;51.140;6.296;2023-02-18T13:58:55;101083.94;;;10.14;100.00
18813;BME280;9534;51.140;6.296;2023-02-18T14:03:19;101078.09;;;10.17;100.00
18813;BME280;9534;51.140;6.296;2023-02-18T14:07:38;101092.81;;;10.16;100.00
18813;BME280;9534;51.140;6.296;2023-02-18T14:11:54;101069.88;;;10.17;100.00
18813;BME280;9534;51.140;6.296;2023-02-18T14:15:59;101069.66;;;10.18;100.00
18813;BME280;9534;51.140;6.296;2023-02-18T14:20:26;101086.56;;;10.22;100.00
18813;BME280;9534;51.140;6.296;2023-02-18T14:24:46;101075.63;;;10.22;100.00
18813;BME280;9534;51.140;6.296;2023-02-18T14:28:53;101089.06;;;10.23;100.00
18813;BME280;9534;51.140;6.296;2023-02-18T14:32:59;101084.47;;;10.24;100.00
18813;BME280;9534;51.140;6.296;2023-02-18T14:37:19;101081.91;;;10.22;100.00
18813;BME280;9534;51.140;6.296;2023-02-18T14:41:38;101061.72;;;10.23;100.00
18813;BME280;9534;51.140;6.296;2023-02-18T14:46:09;101078.34;;;10.22;100.00
18813;BME280;9534;51.140;6.296;2023-02-18T14:50:17;101066.38;;;10.23;100.00
18813;BME280;9534;51.140;6.296;2023-02-18T14:54:23;101065.31;;;10.24;100.00
18813;BME280;9534;51.140;6.296;2023-02-18T14:58:32;101068.06;;;10.24;100.00
18813;BME280;9534;51.140;6.296;2023-02-18T15:02:37;101075.78;;;10.20;100.00
18813;BME280;9534;51.140;6.296;2023-02-18T15:06:41;101066.38;;;10.23;100.00
18813;BME280;9534;51.140;6.296;2023-02-18T15:10:47;101075.22;;;10.25;100.00
18813;BME280;9534;51.140;6.296;2023-02-18T15:14:58;101083.22;;;10.26;100.00
18813;BME280;9534;51.140;6.296;2023-02-18T15:19:06;101076.50;;;10.29;100.00
18813;BME280;9534;51.140;6.296;2023-02-18T15:23:15;101069.13;;;10.29;100.00
18813;BME280;9534;51.140;6.296;2023-02-18T15:27:20;101079.88;;;10.31;100.00
18813;BME280;9534;51.140;6.296;2023-02-18T15:31:28;101091.28;;;10.34;100.00
18813;BME280;9534;51.140;6.296;2023-02-18T15:35:32;101077.59;;;10.34;100.00
18813;BME280;9534;51.140;6.296;2023-02-18T15:39:35;101083.50;;;10.38;100.00
18813;BME280;9534;51.140;6.296;2023-02-18T15:43:51;101076.59;;;10.42;100.00
18813;BME280;9534;51.140;6.296;2023-02-18T15:47:57;101072.41;;;10.46;100.00
18813;BME280;9534;51.140;6.296;2023-02-18T15:52:01;101079.19;;;10.50;100.00
18813;BME280;9534;51.140;6.296;2023-02-18T15:56:09;101073.97;;;10.55;100.00
18813;BME280;9534;51.140;6.296;2023-02-18T16:00:25;101066.00;;;10.60;100.00
18813;BME280;9534;51.140;6.296;2023-02-18T16:04:33;101056.56;;;10.62;100.00
18813;BME280;9534;51.140;6.296;2023-02-18T16:08:39;101058.91;;;10.65;100.00
18813;BME280;9534;51.140;6.296;2023-02-18T16:12:45;101056.16;;;10.65;100.00
18813;BME280;9534;51.140;6.296;2023-02-18T16:17:13;101061.63;;;10.65;100.00
18813;BME280;9534;51.140;6.296;2023-02-18T16:21:29;101056.16;;;10.65;100.00
18813;BME280;9534;51.140;6.296;2023-02-18T16:25:40;101047.09;;;10.65;100.00
18813;BME280;9534;51.140;6.296;2023-02-18T16:29:44;101060.78;;;10.65;100.00
18813;BME280;9534;51.140;6.296;2023-02-18T16:33:47;101062.47;;;10.66;100.00
18813;BME280;9534;51.140;6.296;2023-02-18T16:37:54;101052.38;;;10.66;100.00
18813;BME280;9534;51.140;6.296;2023-02-18T16:41:58;101052.56;;;10.65;100.00
18813;BME280;9534;51.140;6.296;2023-02-18T16:46:05;101050.22;;;10.62;100.00
18813;BME280;9534;51.140;6.296;2023-02-18T16:50:14;101062.44;;;10.59;100.00
18813;BME280;9534;51.140;6.296;2023-02-18T16:54:20;101050.38;;;10.54;100.00
18813;BME280;9534;51.140;6.296;2023-02-18T16:58:24;101071.22;;;10.55;100.00
18813;BME280;9534;51.140;6.296;2023-02-18T17:02:28;101059.84;;;10.51;100.00
18813;BME280;9534;51.140;6.296;2023-02-18T17:06:33;101067.84;;;10.53;100.00
18813;BME280;9534;51.140;6.296;2023-02-18T17:10:38;101065.97;;;10.53;100.00
18813;BME280;9534;51.140;6.296;2023-02-18T17:14:41;101074.38;;;10.52;100.00
18813;BME280;9534;51.140;6.296;2023-02-18T17:18:45;101067.34;;;10.43;100.00
18813;BME280;9534;51.140;6.296;2023-02-18T17:22:48;101080.78;;;10.38;100.00
18813;BME280;9534;51.140;6.296;2023-02-18T17:26:54;101073.16;;;10.33;100.00
18813;BME280;9534;51.140;6.296;2023-02-18T17:30:57;101073.56;;;10.30;100.00
18813;BME280;9534;51.140;6.296;2023-02-18T17:35:01;101071.88;;;10.29;100.00
18813;BME280;9534;51.140;6.296;2023-02-18T17:39:05;101071.03;;;10.29;100.00
18813;BME280;9534;51.140;6.296;2023-02-18T17:43:11;101076.03;;;10.25;100.00
18813;BME280;9534;51.140;6.296;2023-02-18T17:47:15;101076.91;;;10.26;100.00
18813;BME280;9534;51.140;6.296;2023-02-18T17:51:22;101085.13;;;10.26;100.00
18813;BME280;9534;51.140;6.296;2023-02-18T17:55:28;101090.59;;;10.26;100.00
18813;BME280;9534;51.140;6.296;2023-02-18T17:59:33;101089.53;;;10.27;100.00
18813;BME280;9534;51.140;6.296;2023-02-18T18:03:37;101085.28;;;10.24;100.00
18813;BME280;9534;51.140;6.296;2023-02-18T18:07:40;101093.09;;;10.27;100.00
18813;BME280;9534;51.140;6.296;2023-02-18T18:11:44;101094.16;;;10.26;100.00
18813;BME280;9534;51.140;6.296;2023-02-18T18:15:49;101092.47;;;10.25;100.00
18813;BME280;9534;51.140;6.296;2023-02-18T18:19:53;101081.34;;;10.27;100.00
18813;BME280;9534;51.140;6.296;2023-02-18T18:23:56;101077.31;;;10.23;100.00
18813;BME280;9534;51.140;6.296;2023-02-18T18:28:00;101085.13;;;10.26;100.00
18813;BME280;9534;51.140;6.296;2023-02-18T18:32:05;101078.59;;;10.27;100.00
18813;BME280;9534;51.140;6.296;2023-02-18T18:36:08;101070.00;;;10.30;100.00
18813;BME280;9534;51.140;6.296;2023-02-18T18:40:12;101076.50;;;10.29;100.00
18813;BME280;9534;51.140;6.296;2023-02-18T18:44:16;101075.69;;;10.35;100.00
18813;BME280;9534;51.140;6.296;2023-02-18T18:48:21;101070.22;;;10.35;100.00
18813;BME280;9534;51.140;6.296;2023-02-18T18:52:24;101071.13;;;10.42;100.00
18813;BME280;9534;51.140;6.296;2023-02-18T18:56:28;101073.84;;;10.42;100.00
18813;BME280;9534;51.140;6.296;2023-02-18T19:00:34;101082.06;;;10.42;100.00
18813;BME280;9534;51.140;6.296;2023-02-18T19:04:39;101073.69;;;10.43;100.00
18813;BME280;9534;51.140;6.296;2023-02-18T19:08:43;101075.16;;;10.46;100.00
18813;BME280;9534;51.140;6.296;2023-02-18T19:12:49;101052.88;;;10.49;100.00
18813;BME280;9534;51.140;6.296;2023-02-18T19:16:53;101066.16;;;10.52;100.00
18813;BME280;9534;51.140;6.296;2023-02-18T19:20:58;101064.28;;;10.52;100.00
18813;BME280;9534;51.140;6.296;2023-02-18T19:25:05;101071.63;;;10.52;100.00
18813;BME280;9534;51.140;6.296;2023-02-18T19:29:08;101058.09;;;10.44;100.00
18813;BME280;9534;51.140;6.296;2023-02-18T19:33:12;101059.53;;;10.40;100.00
18813;BME280;9534;51.140;6.296;2023-02-18T19:37:18;101077.38;;;10.36;100.00
18813;BME280;9534;51.140;6.296;2023-02-18T19:41:24;101057.59;;;10.34;100.00
18813;BME280;9534;51.140;6.296;2023-02-18T19:45:27;101057.59;;;10.34;100.00
18813;BME280;9534;51.140;6.296;2023-02-18T19:49:31;101061.19;;;10.34;100.00
18813;BME280;9534;51.140;6.296;2023-02-18T19:53:36;101074.00;;;10.34;100.00
18813;BME280;9534;51.140;6.296;2023-02-18T19:57:39;101056.31;;;10.30;100.00
18813;BME280;9534;51.140;6.296;2023-02-18T20:01:42;101065.56;;;10.29;100.00
18813;BME280;9534;51.140;6.296;2023-02-18T20:05:46;101048.13;;;10.30;100.00
18813;BME280;9534;51.140;6.296;2023-02-18T20:09:51;101056.72;;;10.27;100.00
18813;BME280;9534;51.140;6.296;2023-02-18T20:13:55;101044.09;;;10.26;100.00
18813;BME280;9534;51.140;6.296;2023-02-18T20:17:58;101033.53;;;10.23;100.00
18813;BME280;9534;51.140;6.296;2023-02-18T20:22:03;101032.50;;;10.24;100.00
18813;BME280;9534;51.140;6.296;2023-02-18T20:26:12;101024.28;;;10.24;100.00
18813;BME280;9534;51.140;6.296;2023-02-18T20:30:16;101017.13;;;10.23;100.00
18813;BME280;9534;51.140;6.296;2023-02-18T20:34:21;101024.28;;;10.24;100.00
18813;BME280;9534;51.140;6.296;2023-02-18T20:38:24;101028.47;;;10.20;100.00
18813;BME280;9534;51.140;6.296;2023-02-18T20:42:30;101038.38;;;10.21;100.00
18813;BME280;9534;51.140;6.296;2023-02-18T20:46:35;101036.94;;;10.25;100.00
18813;BME280;9534;51.140;6.296;2023-02-18T20:50:39;101024.28;;;10.24;100.00
18813;BME280;9534;51.140;6.296;2023-02-18T20:54:42;101018.03;;;10.30;100.00
18813;BME280;9534;51.140;6.296;2023-02-18T20:58:48;101017.59;;;10.33;100.00
18813;BME280;9534;51.140;6.296;2023-02-18T21:02:52;101002.88;;;10.34;100.00
18813;BME280;9534;51.140;6.296;2023-02-18T21:06:55;100998.22;;;10.28;100.00
18813;BME280;9534;51.140;6.296;2023-02-18T21:11:01;100982.88;;;10.27;100.00
18813;BME280;9534;51.140;6.296;2023-02-18T21:15:07;100982.00;;;10.26;100.00
18813;BME280;9534;51.140;6.296;2023-02-18T21:19:14;100985.59;;;10.27;100.00
18813;BME280;9534;51.140;6.296;2023-02-18T21:23:17;100990.03;;;10.28;100.00
18813;BME280;9534;51.140;6.296;2023-02-18T21:27:20;100998.88;;;10.30;100.00
18813;BME280;9534;51.140;6.296;2023-02-18T21:31:27;101004.13;;;10.31;100.00
18813;BME280;9534;51.140;6.296;2023-02-18T21:35:34;101008.75;;;10.31;100.00
18813;BME280;9534;51.140;6.296;2023-02-18T21:39:37;101000.34;;;10.32;100.00
18813;BME280;9534;51.140;6.296;2023-02-18T21:43:43;101001.41;;;10.31;100.00
18813;BME280;9534;51.140;6.296;2023-02-18T21:47:48;100995.28;;;10.29;100.00
18813;BME280;9534;51.140;6.296;2023-02-18T21:51:51;101000.09;;;10.27;100.00
18813;BME280;9534;51.140;6.296;2023-02-18T21:56:08;100995.25;;;10.23;100.00